createdAt,value
2019-04-22T00:01:41.943Z,101333.29
2019-04-22T00:04:22.568Z,101331.87
2019-04-22T00:07:12.514Z,101327.31
2019-04-22T00:09:48.550Z,101327.20
2019-04-22T00:12:22.351Z,101325.30
2019-04-22T00:14:48.291Z,101326.54
2019-04-22T00:17:31.710Z,101329.17
2019-04-22T00:20:03.049Z,101331.74
2019-04-22T00:22:27.424Z,101324.83
2019-04-22T00:25:10.515Z,101320.34
2019-04-22T00:30:13.010Z,101317.50
2019-04-22T00:32:45.077Z,101322.75
2019-04-22T00:35:15.191Z,101311.04
2019-04-22T00:37:54.758Z,101315.41
2019-04-22T00:40:30.244Z,101315.28
2019-04-22T00:42:52.961Z,101311.52
2019-04-22T00:45:27.842Z,101314.11
2019-04-22T00:48:00.988Z,101310.40
2019-04-22T00:50:55.175Z,101295.55
2019-04-22T00:53:10.315Z,101295.55
2019-04-22T00:56:05.659Z,101310.08
2019-04-22T00:58:39.738Z,101308.79
2019-04-22T01:01:17.509Z,101311.41
2019-04-22T01:03:51.107Z,101307.35
2019-04-22T01:06:17.391Z,101302.66
2019-04-22T01:09:00.417Z,101302.66
2019-04-22T01:11:29.129Z,101309.50
2019-04-22T01:13:55.524Z,101309.87
2019-04-22T01:18:58.937Z,101303.08
2019-04-22T01:21:36.855Z,101301.19
2019-04-22T01:23:59.461Z,101298.27
2019-04-22T01:26:30.015Z,101296.43
2019-04-22T01:28:59.170Z,101296.43
2019-04-22T01:31:22.261Z,101292.52
2019-04-22T01:34:08.236Z,101288.05
2019-04-22T01:36:43.705Z,101290.91
2019-04-22T01:39:25.482Z,101284.56
2019-04-22T01:44:33.087Z,101283.26
2019-04-22T01:46:58.508Z,101280.77
2019-04-22T01:49:33.650Z,101281.00
2019-04-22T01:52:12.764Z,101277.91
2019-04-22T01:54:40.064Z,101282.78
2019-04-22T01:57:04.956Z,101276.50
2019-04-22T01:59:38.405Z,101274.23
2019-04-22T02:02:16.209Z,101276.22
2019-04-22T02:04:53.657Z,101276.22
2019-04-22T02:12:30.421Z,101264.89
2019-04-22T02:14:59.495Z,101267.09
2019-04-22T02:20:05.077Z,101259.33
2019-04-22T02:23:00.442Z,101260.59
2019-04-22T02:25:18.623Z,101261.39
2019-04-22T02:27:52.437Z,101262.23
2019-04-22T02:30:13.895Z,101264.94
2019-04-22T02:33:25.477Z,101261.75
2019-04-22T02:35:37.644Z,101260.57
2019-04-22T02:38:07.214Z,101253.25
2019-04-22T02:40:50.693Z,101259.41
2019-04-22T02:43:14.547Z,101262.06
2019-04-22T02:45:50.491Z,101258.72
2019-04-22T02:50:46.163Z,101257.90
2019-04-22T02:53:38.495Z,101258.72
2019-04-22T02:55:55.380Z,101259.91
2019-04-22T02:58:27.617Z,101255.43
2019-04-22T03:01:01.315Z,101251.13
2019-04-22T03:03:41.650Z,101255.64
2019-04-22T03:08:29.597Z,101249.64
2019-04-22T03:11:12.449Z,101245.39
2019-04-22T03:16:27.080Z,101247.20
2019-04-22T03:18:57.119Z,101258.99
2019-04-22T03:24:08.579Z,101248.98
2019-04-22T03:26:27.441Z,101255.73
2019-04-22T13:21:58.680Z,101017.69
2019-04-22T13:24:30.054Z,101015.09
2019-04-22T13:27:01.317Z,101002.77
2019-04-22T13:29:33.039Z,101007.47
2019-04-22T13:32:04.937Z,101002.89
2019-04-22T13:34:43.882Z,101001.90
2019-04-22T13:37:08.542Z,101009.30
2019-04-22T13:39:39.270Z,101008.33
2019-04-22T13:42:14.144Z,100991.22
2019-04-22T13:44:44.149Z,100991.59
2019-04-22T13:47:30.875Z,101000.75
2019-04-22T13:50:23.811Z,100995.72
2019-04-22T13:53:07.230Z,101003.24
2019-04-22T13:55:27.338Z,100998.59
2019-04-22T13:57:41.481Z,101003.94
2019-04-22T14:00:01.843Z,101003.94
2019-04-22T14:02:32.738Z,100996.21
2019-04-22T14:05:04.312Z,100994.37
2019-04-22T14:07:34.784Z,101006.13
2019-04-22T14:10:08.682Z,101008.12
2019-04-22T14:12:40.042Z,100995.63
2019-04-22T14:15:11.759Z,100994.72
2019-04-22T14:17:43.328Z,100996.56
2019-04-22T14:20:15.085Z,101000.60
2019-04-22T14:22:50.445Z,101001.16
2019-04-22T14:25:22.829Z,100991.02
2019-04-22T14:28:01.705Z,100985.23
2019-04-22T14:30:28.472Z,101002.05
2019-04-22T14:33:00.380Z,100984.42
2019-04-22T14:35:31.258Z,100980.73
2019-04-22T14:38:04.109Z,100987.58
2019-04-22T14:40:36.447Z,101002.31
2019-04-22T14:43:35.151Z,100995.12
2019-04-22T14:46:15.457Z,100991.88
2019-04-22T14:48:41.872Z,100991.88
2019-04-22T14:51:09.125Z,100997.08
2019-04-22T14:53:36.162Z,101002.88
2019-04-22T14:55:50.486Z,100998.73
2019-04-22T14:58:22.748Z,100991.36
2019-04-22T15:00:55.187Z,100984.50
2019-04-22T15:03:26.250Z,100994.28
2019-04-22T15:05:57.968Z,101004.64
2019-04-22T15:08:29.052Z,101005.64
2019-04-22T15:11:00.271Z,101000.81
2019-04-22T15:13:31.601Z,100998.14
2019-04-22T15:16:07.787Z,100990.91
2019-04-22T15:18:44.153Z,100987.16
2019-04-22T15:21:20.678Z,100997.58
2019-04-22T15:23:52.765Z,100991.72
2019-04-22T15:26:24.544Z,100980.80
2019-04-22T15:28:55.513Z,100987.61
2019-04-22T15:31:27.172Z,100987.61
2019-04-22T15:33:58.575Z,100995.77
2019-04-22T15:36:30.465Z,100987.99
2019-04-22T15:39:01.251Z,100991.26
2019-04-22T15:41:34.633Z,100968.57
2019-04-22T15:44:10.023Z,100980.72
2019-04-22T15:46:42.988Z,100980.72
2019-04-22T15:49:13.857Z,100977.03
2019-04-22T15:51:46.760Z,100971.00
2019-04-22T15:54:17.730Z,100974.23
2019-04-22T15:56:50.702Z,100988.33
2019-04-22T15:59:38.983Z,100977.47
2019-04-22T16:01:58.112Z,100989.87
2019-04-22T16:04:34.661Z,100988.10
2019-04-22T16:07:07.163Z,100975.29
2019-04-22T16:09:39.505Z,100972.25
2019-04-22T16:12:18.846Z,100987.86
2019-04-22T16:14:47.933Z,100987.86
2019-04-22T16:17:16.745Z,100976.51
2019-04-22T16:18:44.569Z,100968.09
2019-04-22T16:19:21.291Z,100982.45
2019-04-22T16:19:57.203Z,100983.86
2019-04-22T16:20:36.225Z,100973.48
2019-04-22T16:21:29.465Z,100973.16
2019-04-22T16:22:01.423Z,100971.20
2019-04-22T16:22:34.347Z,100971.20
2019-04-22T16:23:29.766Z,100971.81
2019-04-22T16:24:08.971Z,100971.84
2019-04-22T16:24:45.737Z,100975.19
2019-04-22T16:25:40.937Z,100979.39
2019-04-22T16:26:22.251Z,100977.60
2019-04-22T16:27:00.483Z,100977.17
2019-04-22T16:27:38.424Z,100972.16
2019-04-22T16:28:17.442Z,100977.20
2019-04-22T16:28:57.627Z,100977.20
2019-04-22T16:29:33.569Z,100981.89
2019-04-22T16:30:15.125Z,100978.84
2019-04-22T16:30:50.960Z,100972.11
2019-04-22T16:31:29.216Z,100972.11
2019-04-22T16:32:07.368Z,100979.00
2019-04-22T16:32:43.524Z,100972.16
2019-04-22T16:33:21.667Z,100973.53
2019-04-22T16:33:58.649Z,100964.38
2019-04-22T16:34:36.047Z,100957.55
2019-04-22T16:35:14.975Z,100957.55
2019-04-22T16:35:53.150Z,100965.78
2019-04-22T16:36:31.046Z,100971.75
2019-04-22T16:37:08.098Z,100961.73
2019-04-22T16:37:46.845Z,100968.67
2019-04-22T16:38:24.606Z,100970.51
2019-04-22T16:39:02.489Z,100966.45
2019-04-22T16:40:32.516Z,100956.77
2019-04-22T16:41:08.637Z,100960.77
2019-04-22T16:41:44.926Z,100959.26
2019-04-22T16:42:31.203Z,100959.26
2019-04-22T16:43:02.386Z,100966.38
2019-04-22T16:43:36.698Z,100965.73
2019-04-22T16:44:12.635Z,100951.03
2019-04-22T16:44:51.331Z,100967.20
2019-04-22T16:45:27.386Z,100967.92
2019-04-22T16:46:03.473Z,100960.88
2019-04-22T16:46:39.367Z,101021.50
2019-04-22T16:47:15.726Z,101002.64
2019-04-22T16:47:53.502Z,101022.20
2019-04-22T16:48:29.922Z,101063.77
2019-04-22T16:49:07.625Z,101100.78
2019-04-22T16:49:45.687Z,101094.37
2019-04-22T16:50:23.092Z,101105.80
2019-04-22T16:51:02.353Z,101107.22
2019-04-22T16:51:38.627Z,101107.71
2019-04-22T16:52:18.192Z,101095.87
2019-04-22T16:52:54.464Z,101135.66
2019-04-22T16:53:31.551Z,101114.22
2019-04-22T16:54:09.046Z,101153.09
2019-04-22T16:54:46.623Z,101099.70
2019-04-22T16:55:23.878Z,101111.16
2019-04-22T16:56:00.379Z,101098.86
2019-04-22T16:56:39.833Z,101076.59
2019-04-22T16:57:17.839Z,101106.95
2019-04-22T16:57:54.943Z,101106.95
2019-04-22T16:58:32.751Z,101106.98
2019-04-22T16:59:10.760Z,101084.09
2019-04-22T16:59:48.971Z,101065.41
2019-04-22T17:00:28.839Z,101056.80
2019-04-22T17:01:08.042Z,101053.66
2019-04-22T17:01:46.317Z,101052.78
2019-04-22T17:02:37.266Z,101003.97
2019-04-22T17:03:34.498Z,100972.58
2019-04-22T17:04:24.848Z,100938.95
2019-04-22T17:05:05.220Z,100908.48
2019-04-22T17:06:01.250Z,100938.68
2019-04-22T17:06:39.503Z,100976.13
2019-04-22T17:07:20.361Z,100962.05
2019-04-22T17:07:58.620Z,100995.88
2019-04-22T17:08:36.897Z,100997.23
2019-04-22T17:09:15.968Z,100997.23
2019-04-22T17:09:53.474Z,100957.13
2019-04-22T17:10:31.489Z,100983.63
2019-04-22T17:11:07.894Z,100957.66
2019-04-22T17:11:45.618Z,100935.41
2019-04-22T17:12:38.785Z,100917.67
2019-04-22T17:13:11.270Z,100958.75
2019-04-22T17:13:45.967Z,101003.48
2019-04-22T17:14:32.318Z,100980.30
2019-04-22T17:15:07.745Z,100999.87
2019-04-22T17:15:41.897Z,101064.14
2019-04-22T17:16:20.222Z,101060.03
2019-04-22T17:16:56.716Z,101017.72
2019-04-22T17:17:34.322Z,100973.55
2019-04-22T17:18:11.123Z,100973.55
2019-04-22T17:18:50.088Z,100974.50
2019-04-22T17:19:27.097Z,101008.66
2019-04-22T17:20:04.990Z,101024.13
2019-04-22T17:20:42.545Z,101019.55
2019-04-22T17:21:19.595Z,100977.19
2019-04-22T17:21:57.670Z,100977.19
2019-04-22T17:22:35.531Z,100963.02
2019-04-22T17:23:13.914Z,100962.06
2019-04-22T17:24:29.889Z,100976.56
2019-04-22T17:25:09.438Z,100981.98
2019-04-22T17:25:46.584Z,100967.17
2019-04-22T17:26:24.692Z,100973.58
2019-04-22T17:27:02.286Z,100969.97
2019-04-22T17:27:41.431Z,100967.75
2019-04-22T17:28:17.492Z,100974.15
2019-04-22T17:28:53.856Z,100979.63
2019-04-22T17:29:30.578Z,100969.63
2019-04-22T17:30:08.492Z,100972.84
2019-04-22T17:30:45.699Z,100971.92
2019-04-22T17:31:22.955Z,100971.92
2019-04-22T17:32:06.675Z,100975.09
2019-04-22T17:32:43.238Z,100981.45
2019-04-22T17:33:20.848Z,100965.07
2019-04-22T17:33:59.039Z,100970.98
2019-04-22T17:34:35.997Z,100980.52
2019-04-22T17:35:13.724Z,100974.13
2019-04-22T17:35:50.751Z,100979.09
2019-04-22T17:36:27.640Z,100979.55
2019-04-22T17:37:11.394Z,100981.36
2019-04-22T17:37:42.776Z,100983.17
2019-04-22T17:38:29.361Z,100979.53
2019-04-22T17:39:24.455Z,100978.59
2019-04-22T17:40:05.649Z,100990.40
2019-04-22T17:40:48.759Z,100980.88
2019-04-22T17:41:16.185Z,100980.41
2019-04-22T17:42:01.935Z,100976.78
2019-04-22T17:42:36.685Z,100980.41
2019-04-22T17:43:29.966Z,100984.03
2019-04-22T17:44:01.708Z,100980.37
2019-04-22T17:44:42.360Z,100980.37
2019-04-22T17:45:41.633Z,100981.71
2019-04-22T17:46:10.815Z,100975.77
2019-04-22T17:46:54.813Z,100980.31
2019-04-22T17:48:04.308Z,100981.19
2019-04-22T17:48:59.190Z,100980.28
2019-04-22T17:49:50.572Z,100982.99
2019-04-22T17:50:27.777Z,100981.61
2019-04-22T17:51:16.059Z,100981.59
2019-04-22T17:52:15.645Z,100981.59
2019-04-22T17:52:50.799Z,100984.31
2019-04-22T17:53:31.508Z,100984.31
2019-04-22T17:54:02.483Z,100972.47
2019-04-22T17:54:46.458Z,100975.20
2019-04-22T17:55:23.758Z,100977.92
2019-04-22T17:56:06.608Z,100976.09
2019-04-22T17:56:42.263Z,100972.45
2019-04-22T17:57:22.386Z,100980.58
2019-04-22T17:57:59.595Z,100979.66
2019-04-22T17:58:51.557Z,100975.56
2019-04-22T18:00:19.024Z,100984.15
2019-04-22T18:01:05.892Z,100971.43
2019-04-22T18:01:43.914Z,100971.43
2019-04-22T18:02:25.214Z,100980.45
2019-04-22T18:02:58.683Z,100974.51
2019-04-22T18:03:32.903Z,100978.11
2019-04-22T18:04:04.808Z,100978.11
2019-04-22T18:04:53.312Z,100977.69
2019-04-22T18:05:35.928Z,100974.03
2019-04-22T18:06:13.811Z,100980.84
2019-04-22T18:10:21.011Z,100979.92
2019-04-22T18:13:07.485Z,100981.28
2019-04-22T18:13:45.760Z,100980.39
2019-04-22T18:15:29.439Z,100977.23
2019-04-22T18:16:15.208Z,100978.16
2019-04-22T18:16:49.924Z,100974.07
2019-04-22T18:17:29.162Z,100976.78
2019-04-22T18:18:12.450Z,100976.78
2019-04-22T18:18:52.969Z,100973.57
2019-04-22T18:19:26.300Z,100980.38
2019-04-22T18:20:04.348Z,100979.93
2019-04-22T18:20:41.159Z,100977.20
2019-04-22T18:21:20.747Z,100979.03
2019-04-22T18:21:57.199Z,100984.01
2019-04-22T18:22:33.065Z,100982.15
2019-04-22T18:23:07.936Z,100986.23
2019-04-22T18:23:49.580Z,100977.61
2019-04-22T18:24:26.433Z,100981.70
2019-04-22T18:25:11.463Z,100978.50
2019-04-22T18:26:03.402Z,100976.23
2019-04-22T18:26:38.464Z,100979.84
2019-04-22T18:27:30.416Z,100969.81
2019-04-22T18:27:59.030Z,100969.81
2019-04-22T18:28:43.592Z,100969.79
2019-04-22T18:29:25.513Z,100972.95
2019-04-22T18:29:55.550Z,100972.98
2019-04-22T18:30:41.271Z,100973.90
2019-04-22T18:31:29.785Z,100972.03
2019-04-22T18:32:10.109Z,100969.28
2019-04-22T18:33:13.207Z,100968.37
2019-04-22T18:33:52.690Z,100968.37
2019-04-22T18:34:35.170Z,100978.82
2019-04-22T18:35:20.484Z,100977.02
2019-04-22T18:36:04.078Z,100977.02
2019-04-22T18:36:40.583Z,100966.06
2019-04-22T18:37:22.427Z,100966.06
2019-04-22T18:38:13.126Z,100971.99
2019-04-22T18:38:51.476Z,100974.27
2019-04-22T18:39:27.195Z,100973.36
2019-04-22T18:40:15.128Z,100973.36
2019-04-22T18:40:53.211Z,100969.70
2019-04-22T18:41:30.901Z,100969.63
2019-04-22T18:42:05.991Z,100969.63
2019-04-22T18:42:53.903Z,100975.05
2019-04-22T18:43:35.278Z,100977.78
2019-04-22T18:44:19.849Z,100975.05
2019-04-22T18:45:23.627Z,100975.05
2019-04-22T18:46:03.745Z,100972.34
2019-04-22T18:46:31.512Z,100969.72
2019-04-22T18:47:10.221Z,100976.16
2019-04-22T18:47:52.197Z,100972.17
2019-04-22T18:48:33.400Z,100966.34
2019-04-22T18:49:17.208Z,100972.79
2019-04-22T18:49:55.255Z,100976.03
2019-04-22T18:52:04.637Z,100964.77
2019-04-22T18:53:10.933Z,100971.23
2019-04-22T18:54:01.884Z,100973.55
2019-04-22T18:54:53.401Z,100973.55
2019-04-22T18:55:38.759Z,100971.77
2019-04-22T18:56:37.612Z,100974.94
2019-04-22T18:57:22.397Z,100970.44
2019-04-22T18:58:09.065Z,100972.27
2019-04-22T18:58:53.798Z,100970.42
2019-04-22T18:59:25.637Z,100970.42
2019-04-22T19:00:02.427Z,100970.02
2019-04-22T19:00:45.946Z,100970.02
2019-04-22T19:01:23.993Z,100967.30
2019-04-22T19:02:22.941Z,100971.86
2019-04-22T19:03:06.618Z,100967.31
2019-04-22T19:04:47.367Z,100970.48
2019-04-22T19:06:44.771Z,100972.79
2019-04-22T19:07:35.132Z,100970.08
2019-04-22T19:08:13.730Z,100976.45
2019-04-22T19:08:50.158Z,100978.25
2019-04-22T19:09:30.953Z,100968.73
2019-04-22T19:10:10.552Z,100975.08
2019-04-22T19:11:27.166Z,100971.45
2019-04-22T19:12:17.956Z,100970.08
2019-04-22T19:12:58.566Z,100969.20
2019-04-22T19:14:45.381Z,100971.92
2019-04-22T19:15:25.233Z,100974.65
2019-04-22T19:16:14.267Z,100971.01
2019-04-22T19:16:40.835Z,100972.82
2019-04-22T19:17:24.985Z,100961.91
2019-04-22T19:18:01.904Z,100961.91
2019-04-22T19:18:56.459Z,100967.81
2019-04-22T19:19:35.302Z,100968.71
2019-04-22T19:20:05.472Z,100968.71
2019-04-22T19:20:39.261Z,100970.55
2019-04-22T19:21:19.747Z,100971.92
2019-04-22T19:21:55.890Z,100968.73
2019-04-22T19:22:43.795Z,100971.01
2019-04-22T19:23:17.928Z,100967.37
2019-04-22T19:23:55.955Z,100968.72
2019-04-22T19:24:32.312Z,100968.73
2019-04-22T19:25:05.850Z,100970.09
2019-04-22T19:25:59.121Z,100964.64
2019-04-22T19:26:50.386Z,100960.53
2019-04-22T19:27:15.924Z,100958.28
2019-04-22T19:28:01.345Z,100967.34
2019-04-22T19:28:42.118Z,100960.08
2019-04-22T19:29:18.679Z,100960.08
2019-04-22T19:29:57.801Z,100967.36
2019-04-22T19:30:36.705Z,100962.83
2019-04-22T19:31:18.814Z,100968.28
2019-04-22T19:31:56.952Z,100967.80
2019-04-22T19:32:31.039Z,100958.25
2019-04-22T19:33:13.944Z,100971.89
2019-04-22T19:33:53.871Z,100966.44
2019-04-22T19:34:32.235Z,100966.44
2019-04-22T19:35:09.335Z,100962.83
2019-04-22T19:35:40.479Z,100970.09
2019-04-22T19:36:26.080Z,100961.00
2019-04-22T19:37:05.536Z,100963.27
2019-04-22T19:37:40.020Z,100963.27
2019-04-22T19:38:13.275Z,100966.39
2019-04-22T19:38:59.217Z,100962.75
2019-04-22T19:39:45.689Z,100969.13
2019-04-22T19:40:43.843Z,100962.31
2019-04-22T19:41:07.052Z,100957.76
2019-04-22T19:41:42.255Z,100960.95
2019-04-22T19:42:28.729Z,100960.95
2019-04-22T19:42:59.365Z,100963.66
2019-04-22T19:43:33.139Z,100964.58
2019-04-22T19:44:16.502Z,100961.83
2019-04-22T19:44:48.336Z,100957.76
2019-04-22T19:45:26.592Z,100956.86
2019-04-22T19:46:02.119Z,100958.66
2019-04-22T19:46:55.630Z,100953.64
2019-04-22T19:48:03.374Z,100956.45
2019-04-22T19:49:03.593Z,100951.91
2019-04-22T19:49:48.102Z,100957.82
2019-04-22T19:50:29.499Z,100953.25
2019-04-22T19:51:11.139Z,100951.77
2019-04-22T19:52:24.755Z,100951.70
2019-04-22T19:53:01.641Z,100947.58
2019-04-22T19:53:35.051Z,100944.29
2019-04-22T19:54:14.092Z,100946.92
2019-04-22T19:54:55.016Z,100943.64
2019-04-22T19:55:30.923Z,100952.67
2019-04-22T19:56:03.528Z,100944.86
2019-04-22T19:56:40.381Z,100950.70
2019-04-22T19:57:22.550Z,100950.14
2019-04-22T19:58:04.128Z,100939.10
2019-04-22T19:58:44.393Z,100944.03
2019-04-22T19:59:20.825Z,100938.91
2019-04-22T20:00:12.988Z,100938.81
2019-04-22T20:00:52.035Z,100938.77
2019-04-22T20:01:41.629Z,100938.21
2019-04-22T20:02:21.011Z,100938.59
2019-04-22T20:03:29.394Z,100939.81
2019-04-22T20:04:13.672Z,100939.81
2019-04-22T20:04:52.569Z,100933.34
2019-04-22T20:05:35.051Z,100935.55
2019-04-22T20:06:16.538Z,100934.55
2019-04-22T20:07:00.690Z,100940.41
2019-04-22T20:07:58.897Z,100933.50
2019-04-22T20:08:25.189Z,100941.22
2019-04-22T20:08:59.070Z,100934.73
2019-04-22T20:09:43.690Z,100936.98
2019-04-22T20:10:22.445Z,100933.73
2019-04-22T20:11:03.646Z,100942.33
2019-04-22T20:11:35.211Z,100932.67
2019-04-22T20:12:11.864Z,100933.03
2019-04-22T20:12:48.577Z,100933.03
2019-04-22T20:13:37.271Z,100934.27
2019-04-22T20:14:12.587Z,100934.27
2019-04-22T20:14:49.620Z,100936.05
2019-04-22T20:15:22.776Z,100930.97
2019-04-22T20:15:56.131Z,100930.46
2019-04-22T20:16:37.405Z,100928.54
2019-04-22T20:17:26.734Z,100931.69
2019-04-22T20:18:55.064Z,100923.38
2019-04-22T20:19:19.341Z,100923.38
2019-04-22T20:20:06.514Z,100926.53
2019-04-22T20:20:53.954Z,100926.53
2019-04-22T20:21:17.899Z,100917.84
2019-04-22T20:21:51.663Z,100923.67
2019-04-22T20:22:30.130Z,100922.76
2019-04-22T20:23:02.295Z,100922.72
2019-04-22T20:23:38.551Z,100926.36
2019-04-22T20:24:12.049Z,100927.67
2019-04-22T20:24:53.018Z,100919.85
2019-04-22T20:25:38.970Z,100919.85
2019-04-22T20:26:14.954Z,100922.09
2019-04-22T20:27:02.980Z,100926.20
2019-04-22T20:27:36.398Z,100918.83
2019-04-22T20:28:16.230Z,100919.28
2019-04-22T20:28:54.616Z,100924.27
2019-04-22T20:29:38.392Z,100923.34
2019-04-22T20:30:14.059Z,100917.85
2019-04-22T20:30:46.811Z,100923.79
2019-04-22T20:31:25.413Z,100919.63
2019-04-22T20:32:05.652Z,100921.45
2019-04-22T20:32:41.190Z,100915.50
2019-04-22T20:33:25.825Z,100913.22
2019-04-22T20:34:04.942Z,100913.22
2019-04-22T20:34:47.550Z,100918.60
2019-04-22T20:35:21.294Z,100917.68
2019-04-22T20:35:58.629Z,100914.92
2019-04-22T20:36:55.456Z,100914.87
2019-04-22T20:37:17.782Z,100914.42
2019-04-22T20:37:54.952Z,100913.49
2019-04-22T20:38:29.718Z,100909.33
2019-04-22T20:39:09.191Z,100922.55
2019-04-22T20:39:52.894Z,100910.64
2019-04-22T20:40:31.884Z,100911.09
2019-04-22T20:41:01.415Z,100900.18
2019-04-22T20:41:43.274Z,100911.05
2019-04-22T20:42:42.034Z,100914.70
2019-04-22T20:43:07.595Z,100913.31
2019-04-22T20:43:51.424Z,100906.87
2019-04-22T20:44:22.516Z,100911.48
2019-04-22T20:44:57.161Z,100919.67
2019-04-22T20:45:39.645Z,100910.06
2019-04-22T20:46:18.628Z,100907.77
2019-04-22T20:46:53.779Z,100915.05
2019-04-22T20:47:29.395Z,100907.70
2019-04-22T20:48:03.909Z,100912.23
2019-04-22T20:48:57.897Z,100904.91
2019-04-22T20:49:30.547Z,100909.98
2019-04-22T20:50:10.891Z,100907.66
2019-04-22T20:50:49.662Z,100904.44
2019-04-22T20:51:38.521Z,100901.24
2019-04-22T20:52:17.739Z,100910.38
2019-04-22T20:52:57.053Z,100907.63
2019-04-22T20:53:26.719Z,100914.02
2019-04-22T20:54:05.064Z,100904.41
2019-04-22T20:54:41.920Z,100909.44
2019-04-22T20:55:13.658Z,100905.73
2019-04-22T20:56:00.762Z,100909.38
2019-04-22T20:56:29.981Z,100909.38
2019-04-22T20:57:09.741Z,100903.84
2019-04-22T20:57:53.372Z,100901.55
2019-04-22T20:58:29.749Z,100901.54
2019-04-22T20:59:08.638Z,100905.20
2019-04-22T20:59:47.446Z,100902.87
2019-04-22T21:00:21.575Z,100910.64
2019-04-22T21:00:58.386Z,100900.56
2019-04-22T21:01:43.243Z,100909.26
2019-04-22T21:02:15.273Z,100909.26
2019-04-22T21:02:50.387Z,100906.52
2019-04-22T21:03:27.338Z,100906.52
2019-04-22T21:04:01.853Z,100913.84
2019-04-22T21:04:44.443Z,100899.64
2019-04-22T21:05:24.112Z,100903.77
2019-04-22T21:06:08.715Z,100906.46
2019-04-22T21:06:47.638Z,100901.92
2019-04-22T21:07:23.771Z,100904.23
2019-04-22T21:08:11.315Z,100897.80
2019-04-22T21:08:48.232Z,100897.80
2019-04-22T21:09:22.084Z,100901.92
2019-04-22T21:09:59.440Z,100904.17
2019-04-22T21:10:35.938Z,100900.97
2019-04-22T21:11:17.372Z,100903.70
2019-04-22T21:11:53.617Z,100903.70
2019-04-22T21:12:27.334Z,100901.48
2019-04-22T21:13:07.031Z,100897.36
2019-04-22T21:13:54.354Z,100900.58
2019-04-22T21:14:24.618Z,100904.70
2019-04-22T21:15:15.912Z,100903.84
2019-04-22T21:15:49.229Z,100902.91
2019-04-22T21:16:27.060Z,100911.16
2019-04-22T21:17:09.885Z,100903.38
2019-04-22T21:17:44.691Z,100901.09
2019-04-22T21:18:22.087Z,100908.88
2019-04-22T21:18:58.178Z,100906.58
2019-04-22T21:19:47.949Z,100899.72
2019-04-22T21:20:20.048Z,100905.21
2019-04-22T21:20:56.277Z,100907.09
2019-04-22T21:21:38.488Z,100908.47
2019-04-22T21:22:15.762Z,100896.12
2019-04-22T21:22:49.367Z,100906.20
2019-04-22T21:23:23.217Z,100900.29
2019-04-22T21:24:00.786Z,100903.50
2019-04-22T21:24:47.463Z,100902.59
2019-04-22T21:25:17.916Z,100909.50
2019-04-22T21:26:05.284Z,100909.50
2019-04-22T21:26:39.692Z,100903.52
2019-04-22T21:27:20.983Z,100906.27
2019-04-22T21:27:59.813Z,100909.03
2019-04-22T21:28:47.592Z,100902.63
2019-04-22T21:29:23.624Z,100903.12
2019-04-22T21:29:58.248Z,100903.12
2019-04-22T21:30:45.382Z,100907.26
2019-04-22T21:31:29.361Z,100902.23
2019-04-22T21:32:01.629Z,100902.27
2019-04-22T21:32:42.026Z,100906.39
2019-04-22T21:33:13.466Z,100904.11
2019-04-22T21:33:59.450Z,100900.91
2019-04-22T21:34:41.375Z,100901.87
2019-04-22T21:35:21.565Z,100906.45
2019-04-22T21:36:01.429Z,100904.17
2019-04-22T21:37:14.553Z,100902.86
2019-04-22T21:37:51.291Z,100905.15
2019-04-22T21:38:31.107Z,100897.38
2019-04-22T21:39:05.291Z,100900.63
2019-04-22T21:39:40.749Z,100900.18
2019-04-22T21:40:26.104Z,100899.27
2019-04-22T21:41:01.790Z,100899.31
2019-04-22T21:41:36.823Z,100902.52
2019-04-22T21:42:15.952Z,100897.48
2019-04-22T21:42:59.658Z,100897.48
2019-04-22T21:43:36.538Z,100900.23
2019-04-22T21:44:14.068Z,100897.95
2019-04-22T21:44:47.689Z,100902.07
2019-04-22T21:45:23.849Z,100898.46
2019-04-22T21:46:13.004Z,100901.20
2019-04-22T21:46:54.470Z,100900.30
2019-04-22T21:47:30.093Z,100894.80
2019-04-22T21:48:18.215Z,100894.85
2019-04-22T21:48:46.469Z,100898.97
2019-04-22T21:49:27.457Z,100908.08
2019-04-22T21:50:17.997Z,100902.17
2019-04-22T21:51:19.089Z,100891.20
2019-04-22T21:51:56.781Z,100896.22
2019-04-22T21:52:47.705Z,100895.31
